createdAt,value
2022-07-29T00:00:34.140Z,16.83
2022-07-29T00:03:04.042Z,16.81
2022-07-29T00:05:31.622Z,16.91
2022-07-29T00:07:59.054Z,16.72
2022-07-29T00:10:26.482Z,17.03
2022-07-29T00:12:53.906Z,16.93
2022-07-29T00:15:21.337Z,16.89
2022-07-29T00:17:48.751Z,16.78
2022-07-29T00:20:17.973Z,16.78
2022-07-29T00:22:45.401Z,16.74
2022-07-29T00:25:14.587Z,16.53
2022-07-29T00:27:42.074Z,16.52
2022-07-29T00:30:10.415Z,16.59
2022-07-29T00:32:37.860Z,16.65
2022-07-29T00:35:24.082Z,16.65
2022-07-29T00:37:52.822Z,16.65
2022-07-29T00:40:23.627Z,16.67
2022-07-29T00:42:52.807Z,16.55
2022-07-29T00:45:20.953Z,16.54
2022-07-29T00:47:48.590Z,16.44
2022-07-29T00:50:16.325Z,16.42
2022-07-29T00:52:44.735Z,16.47
2022-07-29T00:55:16.785Z,16.22
2022-07-29T00:57:45.510Z,16.05
2022-07-29T01:00:16.339Z,16.16
2022-07-29T01:02:43.775Z,16.07
2022-07-29T01:05:13.531Z,16.02
2022-07-29T01:07:41.462Z,15.86
2022-07-29T01:10:11.334Z,16.05
2022-07-29T01:12:40.985Z,16.04
2022-07-29T01:15:10.107Z,16.18
2022-07-29T01:17:52.586Z,16.28
2022-07-29T01:20:31.446Z,16.37
2022-07-29T01:23:13.017Z,16.19
2022-07-29T01:26:00.708Z,16.41
2022-07-29T01:29:04.047Z,16.21
2022-07-29T01:31:58.567Z,16.03
2022-07-29T01:34:33.098Z,16.11
2022-07-29T01:37:08.480Z,16.07
2022-07-29T01:39:38.590Z,16.16
2022-07-29T01:42:14.470Z,16.00
2022-07-29T01:44:57.781Z,16.23
2022-07-29T01:47:30.395Z,16.08
2022-07-29T01:50:02.103Z,16.10
2022-07-29T01:52:41.415Z,16.16
2022-07-29T01:55:14.724Z,15.92
2022-07-29T01:57:46.279Z,16.07
2022-07-29T02:00:17.910Z,16.10
2022-07-29T02:02:47.543Z,16.14
2022-07-29T02:05:17.865Z,16.03
2022-07-29T02:07:48.640Z,16.05
2022-07-29T02:10:20.577Z,15.93
2022-07-29T02:12:55.822Z,15.97
2022-07-29T02:15:26.071Z,16.00
2022-07-29T02:17:58.520Z,15.79
2022-07-29T02:20:27.925Z,15.61
2022-07-29T02:22:56.567Z,15.73
2022-07-29T02:25:25.655Z,16.01
2022-07-29T02:28:05.789Z,15.87
2022-07-29T02:30:35.742Z,15.85
2022-07-29T02:33:05.182Z,15.87
2022-07-29T02:35:34.714Z,15.78
2022-07-29T02:38:22.513Z,15.78
2022-07-29T02:40:52.427Z,15.96
2022-07-29T02:43:22.669Z,15.77
2022-07-29T02:45:54.998Z,15.78
2022-07-29T02:48:29.458Z,15.81
2022-07-29T02:51:09.129Z,15.60
2022-07-29T02:53:40.916Z,15.68
2022-07-29T02:56:12.538Z,15.79
2022-07-29T02:58:42.941Z,15.76
2022-07-29T03:01:21.876Z,15.84
2022-07-29T03:03:51.555Z,15.64
2022-07-29T03:06:31.142Z,15.64
2022-07-29T03:09:10.603Z,15.54
2022-07-29T03:11:42.440Z,15.48
2022-07-29T03:14:21.245Z,15.66
2022-07-29T03:16:51.916Z,15.83
2022-07-29T03:19:20.012Z,15.75
2022-07-29T03:21:47.820Z,15.78
2022-07-29T03:24:30.475Z,15.89
2022-07-29T03:26:58.796Z,16.01
2022-07-29T03:29:33.441Z,15.88
2022-07-29T03:32:08.352Z,15.77
2022-07-29T03:34:37.179Z,15.71
2022-07-29T03:37:04.740Z,15.79
2022-07-29T03:39:36.932Z,15.68
2022-07-29T03:42:07.065Z,15.71
2022-07-29T03:44:34.961Z,15.92
2022-07-29T03:47:05.980Z,15.70
2022-07-29T03:49:34.725Z,15.58
2022-07-29T03:52:02.458Z,15.57
2022-07-29T03:54:29.923Z,15.84
2022-07-29T03:57:01.413Z,15.64
2022-07-29T03:59:29.570Z,15.60
2022-07-29T04:01:58.021Z,15.65
2022-07-29T04:04:28.232Z,15.71
2022-07-29T04:06:56.231Z,15.70
2022-07-29T04:09:23.861Z,15.75
2022-07-29T04:12:01.889Z,15.92
2022-07-29T04:14:31.789Z,15.99
2022-07-29T04:16:59.193Z,16.11
2022-07-29T04:19:27.968Z,16.21
2022-07-29T04:21:55.491Z,16.18
2022-07-29T04:24:22.903Z,16.05
2022-07-29T04:26:50.346Z,16.19
2022-07-29T04:29:17.793Z,16.28
2022-07-29T04:31:45.778Z,16.41
2022-07-29T04:34:14.460Z,16.58
2022-07-29T04:36:43.429Z,16.61
2022-07-29T04:39:11.116Z,16.87
2022-07-29T04:41:38.589Z,16.99
2022-07-29T04:44:07.334Z,17.11
2022-07-29T04:46:35.193Z,16.93
2022-07-29T04:49:03.323Z,17.03
2022-07-29T04:51:31.004Z,17.04
2022-07-29T04:53:59.814Z,16.99
2022-07-29T04:56:27.483Z,17.12
2022-07-29T04:58:55.279Z,17.32
2022-07-29T05:01:22.855Z,17.38
2022-07-29T05:03:50.394Z,17.44
2022-07-29T05:06:17.874Z,17.58
2022-07-29T05:08:45.415Z,17.66
2022-07-29T05:11:19.413Z,17.78
2022-07-29T05:13:48.852Z,18.12
2022-07-29T05:16:16.481Z,18.20
2022-07-29T05:18:44.081Z,18.43
2022-07-29T05:21:12.753Z,18.66
2022-07-29T05:23:40.183Z,18.74
2022-07-29T05:26:07.601Z,19.03
2022-07-29T05:28:36.752Z,18.73
2022-07-29T05:31:04.265Z,19.02
2022-07-29T05:33:34.969Z,19.26
2022-07-29T05:36:06.381Z,19.22
2022-07-29T05:38:33.911Z,19.47
2022-07-29T05:41:01.435Z,19.43
2022-07-29T05:43:29.217Z,19.40
2022-07-29T05:45:58.616Z,19.32
2022-07-29T05:48:26.710Z,19.29
2022-07-29T05:50:54.550Z,19.35
2022-07-29T05:53:23.053Z,19.39
2022-07-29T05:55:51.047Z,19.37
2022-07-29T05:58:18.509Z,19.42
2022-07-29T06:00:46.386Z,19.25
2022-07-29T06:03:15.294Z,19.16
2022-07-29T06:05:42.761Z,19.35
2022-07-29T06:08:10.203Z,19.30
2022-07-29T06:10:38.040Z,19.16
2022-07-29T06:13:05.562Z,19.16
2022-07-29T06:15:33.150Z,19.14
2022-07-29T06:18:01.583Z,19.26
2022-07-29T06:20:32.117Z,19.42
2022-07-29T06:23:00.672Z,19.63
2022-07-29T06:25:29.969Z,19.55
2022-07-29T06:27:57.428Z,19.78
2022-07-29T06:30:24.905Z,19.97
2022-07-29T06:32:52.722Z,19.98
2022-07-29T06:35:39.278Z,20.18
2022-07-29T06:38:30.917Z,20.33
2022-07-29T06:41:03.070Z,20.56
2022-07-29T06:43:34.640Z,20.55
2022-07-29T06:46:03.564Z,20.44
2022-07-29T06:48:31.224Z,20.07
2022-07-29T06:50:58.661Z,19.82
2022-07-29T06:53:27.633Z,20.07
2022-07-29T06:55:55.038Z,20.18
2022-07-29T06:58:22.451Z,20.33
2022-07-29T07:00:50.141Z,20.55
2022-07-29T07:03:18.904Z,20.72
2022-07-29T07:05:47.039Z,21.02
2022-07-29T07:08:15.059Z,21.26
2022-07-29T07:10:45.027Z,21.03
2022-07-29T07:13:12.563Z,21.39
2022-07-29T07:15:40.618Z,21.71
2022-07-29T07:18:08.360Z,21.88
2022-07-29T07:20:37.202Z,21.81
2022-07-29T07:23:05.545Z,22.28
2022-07-29T07:25:33.075Z,22.30
2022-07-29T07:28:01.907Z,22.02
2022-07-29T07:30:29.619Z,21.91
2022-07-29T07:32:57.198Z,22.31
2022-07-29T07:35:25.128Z,22.41
2022-07-29T07:37:52.552Z,22.55
2022-07-29T07:40:19.944Z,22.23
2022-07-29T07:42:47.382Z,22.28
2022-07-29T07:45:16.829Z,22.33
2022-07-29T07:47:45.100Z,22.22
2022-07-29T07:50:18.249Z,22.56
2022-07-29T07:52:51.475Z,22.46
2022-07-29T07:55:19.701Z,22.76
2022-07-29T07:57:47.564Z,22.95
2022-07-29T08:00:18.446Z,23.15
2022-07-29T08:02:46.995Z,23.35
2022-07-29T08:05:17.902Z,23.52
2022-07-29T08:07:47.036Z,23.38
2022-07-29T08:10:14.972Z,23.64
2022-07-29T08:12:43.563Z,23.70
2022-07-29T08:15:11.424Z,23.85
2022-07-29T08:17:40.184Z,24.21
2022-07-29T08:20:08.341Z,24.49
2022-07-29T08:22:35.749Z,24.98
2022-07-29T08:25:03.205Z,25.11
2022-07-29T08:27:43.376Z,24.83
2022-07-29T08:30:12.004Z,25.18
2022-07-29T08:32:53.623Z,25.55
2022-07-29T08:35:22.386Z,25.92
2022-07-29T08:37:50.134Z,26.51
2022-07-29T08:40:17.666Z,26.44
2022-07-29T08:42:45.241Z,25.94
2022-07-29T08:45:12.933Z,26.28
2022-07-29T08:47:42.114Z,26.57
2022-07-29T08:50:10.558Z,26.87
2022-07-29T08:52:40.291Z,26.24
2022-07-29T08:55:09.515Z,26.15
2022-07-29T08:57:37.650Z,26.29
2022-07-29T09:00:12.146Z,25.94
2022-07-29T09:02:46.740Z,26.56
2022-07-29T09:05:15.282Z,26.95
2022-07-29T09:07:44.735Z,27.24
2022-07-29T09:10:12.496Z,27.50
2022-07-29T09:12:40.722Z,27.54
2022-07-29T09:15:09.515Z,27.48
2022-07-29T09:17:49.242Z,27.55
2022-07-29T09:20:19.880Z,27.57
2022-07-29T09:22:50.063Z,27.93
2022-07-29T09:25:34.102Z,28.41
2022-07-29T09:28:08.155Z,28.42
2022-07-29T09:30:35.690Z,28.20
2022-07-29T09:33:05.407Z,28.43
2022-07-29T09:35:32.952Z,28.63
2022-07-29T09:38:12.646Z,28.64
2022-07-29T09:40:40.822Z,28.72
2022-07-29T09:43:12.663Z,28.57
2022-07-29T09:45:40.693Z,28.68
2022-07-29T09:48:17.711Z,28.14
2022-07-29T09:50:47.865Z,28.29
2022-07-29T09:53:32.349Z,28.00
2022-07-29T09:56:00.802Z,28.53
2022-07-29T09:58:28.574Z,28.93
2022-07-29T10:00:57.672Z,28.98
2022-07-29T10:03:27.055Z,29.77
2022-07-29T10:06:09.211Z,30.05
2022-07-29T10:08:37.023Z,30.29
2022-07-29T10:11:12.072Z,30.14
2022-07-29T10:13:40.430Z,30.49
2022-07-29T10:16:08.312Z,30.96
2022-07-29T10:18:39.596Z,30.45
2022-07-29T10:21:07.404Z,29.78
2022-07-29T10:23:46.210Z,29.38
2022-07-29T10:26:15.396Z,29.02
2022-07-29T10:28:42.859Z,29.51
2022-07-29T10:31:17.514Z,29.84
2022-07-29T10:34:01.215Z,29.72
2022-07-29T10:36:45.306Z,29.75
2022-07-29T10:39:22.431Z,29.47
2022-07-29T10:42:04.048Z,29.76
2022-07-29T10:44:33.109Z,29.91
2022-07-29T10:47:00.837Z,29.38
2022-07-29T10:49:31.089Z,29.34
2022-07-29T10:52:06.096Z,29.59
2022-07-29T10:54:44.052Z,29.56
2022-07-29T10:57:20.272Z,29.68
2022-07-29T10:59:50.180Z,30.00
2022-07-29T11:02:44.728Z,30.76
2022-07-29T11:05:16.461Z,29.69
2022-07-29T11:08:20.215Z,30.42
2022-07-29T11:10:49.316Z,29.97
2022-07-29T11:13:48.804Z,30.30
2022-07-29T11:16:17.136Z,30.77
2022-07-29T11:19:26.621Z,30.25
2022-07-29T11:21:59.772Z,29.97
2022-07-29T11:24:33.363Z,30.36
2022-07-29T11:27:13.512Z,30.40
2022-07-29T11:29:49.738Z,30.09
2022-07-29T11:32:22.876Z,30.33
2022-07-29T11:35:16.809Z,30.05
2022-07-29T11:37:52.394Z,30.36
2022-07-29T11:40:23.435Z,30.55
2022-07-29T11:42:52.576Z,30.54
2022-07-29T11:45:42.666Z,30.84
2022-07-29T11:48:29.785Z,30.88
2022-07-29T11:51:01.479Z,30.60
2022-07-29T11:53:32.589Z,30.76
2022-07-29T11:56:01.187Z,31.17
2022-07-29T11:58:30.723Z,31.15
2022-07-29T12:00:58.976Z,30.93
2022-07-29T12:03:35.516Z,30.53
2022-07-29T12:06:07.944Z,30.68
2022-07-29T12:08:43.241Z,30.92
2022-07-29T12:11:21.222Z,31.18
2022-07-29T12:13:49.943Z,30.87
2022-07-29T12:16:25.558Z,31.04
2022-07-29T12:18:58.477Z,31.31
2022-07-29T12:21:26.893Z,31.34
2022-07-29T12:24:05.979Z,30.95
2022-07-29T12:26:37.318Z,31.20
2022-07-29T12:29:11.370Z,31.27
2022-07-29T12:31:43.848Z,31.76
2022-07-29T12:34:13.184Z,31.04
2022-07-29T12:36:42.147Z,31.22
2022-07-29T12:39:12.342Z,30.91
2022-07-29T12:41:40.515Z,30.38
2022-07-29T12:44:08.029Z,30.31
2022-07-29T12:46:35.525Z,30.04
2022-07-29T12:49:04.044Z,30.27
2022-07-29T12:51:33.705Z,29.79
2022-07-29T12:54:07.847Z,29.97
2022-07-29T12:56:44.931Z,30.25
2022-07-29T12:59:14.408Z,30.37
2022-07-29T13:01:41.867Z,30.61
2022-07-29T13:04:09.525Z,30.46
2022-07-29T13:06:41.129Z,30.40
2022-07-29T13:09:12.567Z,30.69
2022-07-29T13:11:47.908Z,30.50
2022-07-29T13:14:31.239Z,30.49
2022-07-29T13:17:02.831Z,30.80
2022-07-29T13:19:40.386Z,30.76
2022-07-29T13:22:08.642Z,30.59
2022-07-29T13:24:46.807Z,30.38
2022-07-29T13:27:16.976Z,30.43
2022-07-29T13:29:44.498Z,30.28
2022-07-29T13:32:13.905Z,30.34
2022-07-29T13:34:41.763Z,30.46
2022-07-29T13:37:09.281Z,30.63
2022-07-29T13:39:38.144Z,30.55
2022-07-29T13:42:10.676Z,30.40
2022-07-29T13:44:39.679Z,30.28
2022-07-29T13:47:07.434Z,29.92
2022-07-29T13:49:35.132Z,29.53
2022-07-29T13:52:02.625Z,29.87
2022-07-29T13:54:30.180Z,29.65
2022-07-29T13:56:57.589Z,30.00
2022-07-29T13:59:25.011Z,30.10
2022-07-29T14:01:53.803Z,30.26
2022-07-29T14:04:22.483Z,30.35
2022-07-29T14:06:49.958Z,30.23
2022-07-29T14:09:17.661Z,30.32
2022-07-29T14:11:46.698Z,30.61
2022-07-29T14:14:14.147Z,30.70
2022-07-29T14:16:47.586Z,31.01
2022-07-29T14:19:17.831Z,30.38
2022-07-29T14:21:45.687Z,30.44
2022-07-29T14:24:17.069Z,30.70
2022-07-29T14:26:46.265Z,30.57
2022-07-29T14:29:13.980Z,30.57
2022-07-29T14:31:41.463Z,30.40
2022-07-29T14:34:08.915Z,30.49
2022-07-29T14:36:37.682Z,30.48
2022-07-29T14:39:05.509Z,30.43
2022-07-29T14:41:32.904Z,29.99
2022-07-29T14:44:01.480Z,30.11
2022-07-29T14:46:28.957Z,30.04
2022-07-29T14:48:56.504Z,30.26
2022-07-29T14:51:24.041Z,30.51
2022-07-29T14:54:01.139Z,30.62
2022-07-29T14:56:46.570Z,30.67
2022-07-29T14:59:14.852Z,30.45
2022-07-29T15:01:42.317Z,30.62
2022-07-29T15:04:09.930Z,30.87
2022-07-29T15:06:38.863Z,30.66
2022-07-29T15:09:07.685Z,30.19
2022-07-29T15:11:38.448Z,30.38
2022-07-29T15:14:06.546Z,30.52
2022-07-29T15:16:34.307Z,30.41
2022-07-29T15:19:02.641Z,30.53
2022-07-29T15:21:30.124Z,30.60
2022-07-29T15:23:57.584Z,30.40
2022-07-29T15:26:26.351Z,29.90
2022-07-29T15:28:54.027Z,29.88
2022-07-29T15:31:21.453Z,29.90
2022-07-29T15:33:49.405Z,30.12
2022-07-29T15:36:35.964Z,30.21
2022-07-29T15:39:04.469Z,29.92
2022-07-29T15:41:33.199Z,29.92
2022-07-29T15:44:00.591Z,29.97
2022-07-29T15:46:45.467Z,30.00
2022-07-29T15:49:13.006Z,30.06
2022-07-29T15:51:40.451Z,29.93
2022-07-29T15:54:09.239Z,29.64
2022-07-29T15:56:38.668Z,29.39
2022-07-29T15:59:06.070Z,29.19
2022-07-29T16:01:33.494Z,29.21
2022-07-29T16:04:00.901Z,29.15
2022-07-29T16:06:28.370Z,29.10
2022-07-29T16:08:56.647Z,29.04
2022-07-29T16:11:24.064Z,28.89
2022-07-29T16:13:52.849Z,28.75
2022-07-29T16:16:20.333Z,28.83
2022-07-29T16:18:48.319Z,28.94
2022-07-29T16:21:15.835Z,28.98
2022-07-29T16:23:43.293Z,28.89
2022-07-29T16:26:10.748Z,28.78
2022-07-29T16:28:38.380Z,28.84
2022-07-29T16:31:07.130Z,28.74
2022-07-29T16:33:55.339Z,28.67
2022-07-29T16:36:22.750Z,28.61
2022-07-29T16:38:50.829Z,28.59
2022-07-29T16:41:18.296Z,28.47
2022-07-29T16:43:46.097Z,28.48
2022-07-29T16:46:18.482Z,28.41
2022-07-29T16:48:46.831Z,28.47
2022-07-29T16:51:14.671Z,28.41
2022-07-29T16:53:42.265Z,28.41
2022-07-29T16:56:12.844Z,28.28
2022-07-29T16:58:43.826Z,28.35
2022-07-29T17:01:12.235Z,28.23
2022-07-29T17:04:01.570Z,28.35
2022-07-29T17:06:29.767Z,28.21
2022-07-29T17:08:57.591Z,28.33
2022-07-29T17:11:52.695Z,28.28
2022-07-29T17:14:12.886Z,28.31
2022-07-29T17:16:40.355Z,28.37
2022-07-29T17:19:09.126Z,28.32
2022-07-29T17:21:36.634Z,28.23
2022-07-29T17:24:16.242Z,28.13
2022-07-29T17:26:44.488Z,28.10
2022-07-29T17:29:12.140Z,28.14
2022-07-29T17:31:39.792Z,28.09
2022-07-29T17:34:09.307Z,28.15
2022-07-29T17:36:37.094Z,27.96
2022-07-29T17:39:06.706Z,27.85
2022-07-29T17:41:34.813Z,27.67
2022-07-29T17:44:02.233Z,27.62
2022-07-29T17:46:29.746Z,27.46
2022-07-29T17:48:58.361Z,27.48
2022-07-29T17:51:28.077Z,27.39
2022-07-29T17:53:56.176Z,27.40
2022-07-29T17:56:23.633Z,27.49
2022-07-29T17:58:51.041Z,27.35
2022-07-29T18:01:19.116Z,27.64
2022-07-29T18:03:46.903Z,27.40
2022-07-29T18:06:14.541Z,27.56
2022-07-29T18:08:47.393Z,27.28
2022-07-29T18:11:15.186Z,27.36
2022-07-29T18:13:42.747Z,27.28
2022-07-29T18:16:10.931Z,27.30
2022-07-29T18:18:38.470Z,27.14
2022-07-29T18:21:06.048Z,27.05
2022-07-29T18:23:33.910Z,27.07
2022-07-29T18:26:02.696Z,26.99
2022-07-29T18:28:30.206Z,27.04
2022-07-29T18:30:58.050Z,27.00
2022-07-29T18:33:25.482Z,26.89
2022-07-29T18:36:10.734Z,26.65
2022-07-29T18:38:39.364Z,26.84
2022-07-29T18:41:08.198Z,26.80
2022-07-29T18:43:35.684Z,26.40
2022-07-29T18:46:05.254Z,26.60
2022-07-29T18:48:33.133Z,26.59
2022-07-29T18:51:00.650Z,26.53
2022-07-29T18:53:28.090Z,26.40
2022-07-29T18:56:00.298Z,26.46
2022-07-29T18:58:29.267Z,26.19
2022-07-29T19:00:56.686Z,26.18
2022-07-29T19:03:24.088Z,26.16
2022-07-29T19:05:52.196Z,26.00
2022-07-29T19:08:19.588Z,25.99
2022-07-29T19:10:47.004Z,25.64
2022-07-29T19:13:14.420Z,25.44
2022-07-29T19:15:44.300Z,25.26
2022-07-29T19:18:13.216Z,25.08
2022-07-29T19:20:41.904Z,24.90
2022-07-29T19:23:09.679Z,24.65
2022-07-29T19:25:37.423Z,24.61
2022-07-29T19:28:20.892Z,24.55
2022-07-29T19:30:49.722Z,24.08
2022-07-29T19:33:18.777Z,24.13
2022-07-29T19:35:49.327Z,23.99
2022-07-29T19:38:19.147Z,24.08
2022-07-29T19:40:46.567Z,23.96
2022-07-29T19:43:49.998Z,23.99
2022-07-29T19:46:03.018Z,23.76
2022-07-29T19:48:30.537Z,24.08
2022-07-29T19:50:57.990Z,23.80
2022-07-29T19:53:25.415Z,23.84
2022-07-29T19:55:53.049Z,24.00
2022-07-29T19:58:22.427Z,24.04
2022-07-29T20:00:49.985Z,24.23
2022-07-29T20:03:18.872Z,24.14
2022-07-29T20:05:47.865Z,24.45
2022-07-29T20:08:15.728Z,24.50
2022-07-29T20:10:43.172Z,24.80
2022-07-29T20:13:10.851Z,24.81
2022-07-29T20:15:38.692Z,24.62
2022-07-29T20:18:06.327Z,24.64
2022-07-29T20:20:35.140Z,24.76
2022-07-29T20:23:03.667Z,24.66
2022-07-29T20:25:31.299Z,24.56
2022-07-29T20:27:58.898Z,24.49
2022-07-29T20:30:26.499Z,24.48
2022-07-29T20:32:55.038Z,24.29
2022-07-29T20:35:23.165Z,24.29
2022-07-29T20:37:56.238Z,24.34
2022-07-29T20:40:24.802Z,24.25
2022-07-29T20:42:52.256Z,24.25
2022-07-29T20:45:20.015Z,24.35
2022-07-29T20:47:47.455Z,24.34
2022-07-29T20:50:15.425Z,24.17
2022-07-29T20:52:44.058Z,24.19
2022-07-29T20:55:12.821Z,24.14
2022-07-29T20:57:40.280Z,24.22
2022-07-29T21:00:09.288Z,24.06
2022-07-29T21:02:37.295Z,24.03
2022-07-29T21:05:05.355Z,24.11
2022-07-29T21:07:32.778Z,24.01
2022-07-29T21:10:00.254Z,24.00
2022-07-29T21:12:30.028Z,23.97
2022-07-29T21:14:58.744Z,23.95
2022-07-29T21:17:26.200Z,23.95
2022-07-29T21:19:55.214Z,23.94
2022-07-29T21:22:22.681Z,23.93
2022-07-29T21:24:50.236Z,24.05
2022-07-29T21:27:35.626Z,23.88
2022-07-29T21:30:08.963Z,23.66
2022-07-29T21:32:36.440Z,23.81
2022-07-29T21:35:19.090Z,23.80
2022-07-29T21:37:52.509Z,23.55
2022-07-29T21:40:19.970Z,23.78
2022-07-29T21:42:47.450Z,23.91
2022-07-29T21:45:18.568Z,23.88
2022-07-29T21:47:46.018Z,23.87
2022-07-29T21:50:13.448Z,23.99
2022-07-29T21:52:40.846Z,23.85
2022-07-29T21:55:10.572Z,23.89
2022-07-29T21:57:39.170Z,23.79
2022-07-29T22:00:10.357Z,23.96
2022-07-29T22:02:39.108Z,23.81
2022-07-29T22:05:06.802Z,23.75
2022-07-29T22:07:55.357Z,23.74
2022-07-29T22:10:22.040Z,23.69
2022-07-29T22:12:50.827Z,23.76
2022-07-29T22:15:18.362Z,23.78
2022-07-29T22:17:47.405Z,23.58
2022-07-29T22:20:15.058Z,23.37
2022-07-29T22:22:42.774Z,23.23
2022-07-29T22:25:11.447Z,23.26
2022-07-29T22:27:39.065Z,23.23
2022-07-29T22:30:08.325Z,23.23
2022-07-29T22:32:36.075Z,23.27
2022-07-29T22:35:05.233Z,23.20
2022-07-29T22:37:32.859Z,23.14
2022-07-29T22:40:00.458Z,22.93
2022-07-29T22:42:27.918Z,23.12
2022-07-29T22:44:55.526Z,23.07
2022-07-29T22:47:39.039Z,23.01
2022-07-29T22:50:11.907Z,22.99
2022-07-29T22:52:39.359Z,22.99
2022-07-29T22:55:07.614Z,22.89
2022-07-29T22:57:35.075Z,22.85
2022-07-29T23:00:02.678Z,22.89
2022-07-29T23:02:30.376Z,22.86
2022-07-29T23:04:57.793Z,22.69
2022-07-29T23:07:27.093Z,22.63
2022-07-29T23:09:54.518Z,22.62
2022-07-29T23:12:22.179Z,22.85
2022-07-29T23:14:49.581Z,22.97
2022-07-29T23:17:17.033Z,22.84
2022-07-29T23:19:44.511Z,22.83
2022-07-29T23:22:12.205Z,22.85
2022-07-29T23:24:41.151Z,22.91
2022-07-29T23:27:08.668Z,22.54
2022-07-29T23:29:36.863Z,22.49
2022-07-29T23:32:04.877Z,22.56
2022-07-29T23:34:32.338Z,22.24
2022-07-29T23:37:00.046Z,22.07
2022-07-29T23:39:27.684Z,21.92
2022-07-29T23:41:56.412Z,21.94
2022-07-29T23:44:23.804Z,22.19
2022-07-29T23:46:51.324Z,22.00
2022-07-29T23:49:18.848Z,21.97
2022-07-29T23:51:46.307Z,22.06
2022-07-29T23:54:13.729Z,22.31
2022-07-29T23:56:41.193Z,22.33
2022-07-29T23:59:09.914Z,22.14
